createdAt,value
2019-01-15T00:03:29.875Z,101154.92
2019-01-15T00:06:18.734Z,101155.48
2019-01-15T00:09:08.010Z,101150.03
2019-01-15T00:11:56.862Z,101151.65
2019-01-15T00:14:45.647Z,101111.09
2019-01-15T00:17:34.494Z,101166.09
2019-01-15T00:20:23.346Z,101157.66
2019-01-15T00:23:12.328Z,101152.77
2019-01-15T00:26:01.150Z,101155.75
2019-01-15T00:28:49.977Z,101161.20
2019-01-15T00:31:31.633Z,101158.74
2019-01-15T00:34:20.472Z,101165.02
2019-01-15T00:37:09.357Z,101163.10
2019-01-15T00:39:58.283Z,101169.66
2019-01-15T00:42:47.148Z,101174.56
2019-01-15T00:45:36.021Z,101173.73
2019-01-15T00:48:24.858Z,101174.81
2019-01-15T00:51:13.785Z,101161.72
2019-01-15T00:54:02.628Z,101178.08
2019-01-15T00:56:51.453Z,101105.93
2019-01-15T00:59:40.332Z,101105.09
2019-01-15T01:02:09.890Z,101166.64
2019-01-15T01:04:58.814Z,101163.92
2019-01-15T01:07:47.708Z,101161.20
2019-01-15T01:10:29.379Z,101163.66
2019-01-15T01:13:18.331Z,101165.28
2019-01-15T01:16:07.240Z,101166.94
2019-01-15T01:18:56.068Z,101167.74
2019-01-15T01:21:44.936Z,101176.73
2019-01-15T01:24:33.781Z,101185.42
2019-01-15T01:27:22.593Z,101179.44
2019-01-15T01:30:30.768Z,101180.24
2019-01-15T01:33:19.719Z,101184.61
2019-01-15T01:36:08.565Z,101186.22
2019-01-15T01:38:57.495Z,101194.09
2019-01-15T01:41:46.305Z,101197.62
2019-01-15T01:44:35.219Z,101195.97
2019-01-15T01:47:24.086Z,101192.96
2019-01-15T01:50:33.864Z,101202.16
2019-01-15T01:53:22.720Z,101190.98
2019-01-15T01:56:11.638Z,101183.37
2019-01-15T01:59:00.495Z,101189.31
2019-01-15T02:01:49.468Z,101193.37
2019-01-15T02:04:18.984Z,101195.27
2019-01-15T02:06:48.588Z,101191.72
2019-01-15T02:15:29.663Z,101193.33
2019-01-15T02:18:18.508Z,101192.53
2019-01-15T02:21:07.385Z,101187.06
2019-01-15T02:23:56.310Z,101199.63
2019-01-15T02:29:42.080Z,101202.09
2019-01-15T02:32:24.108Z,101187.16
2019-01-15T02:35:13.084Z,101202.66
2019-01-15T02:38:01.886Z,101205.93
2019-01-15T02:40:50.770Z,101210.56
2019-01-15T02:43:39.571Z,101210.31
2019-01-15T02:46:28.416Z,101199.72
2019-01-15T02:49:17.210Z,101171.08
2019-01-15T02:52:06.110Z,101132.13
2019-01-15T02:54:35.598Z,101198.14
2019-01-15T02:57:24.425Z,101203.05
2019-01-15T03:00:34.247Z,101194.06
2019-01-15T03:03:23.040Z,101189.19
2019-01-15T03:06:11.971Z,101183.75
2019-01-15T03:09:00.923Z,101172.60
2019-01-15T03:11:49.731Z,101170.45
2019-01-15T03:14:38.582Z,101128.73
2019-01-15T03:17:27.382Z,101165.81
2019-01-15T03:20:37.691Z,101175.08
2019-01-15T03:23:26.686Z,101172.63
2019-01-15T03:26:15.514Z,101174.30
2019-01-15T03:28:57.422Z,101172.94
2019-01-15T03:31:46.225Z,101089.84
2019-01-15T03:34:27.538Z,101167.48
2019-01-15T03:36:57.053Z,101161.76
2019-01-15T03:39:45.868Z,101150.86
2019-01-15T03:42:34.774Z,101141.05
2019-01-15T03:45:23.650Z,101135.59
2019-01-15T03:48:12.508Z,101137.48
2019-01-15T03:50:41.989Z,101147.02
2019-01-15T03:53:30.837Z,101148.36
2019-01-15T03:56:19.644Z,101147.83
2019-01-15T03:59:08.480Z,101086.00
2019-01-15T04:01:57.319Z,101152.16
2019-01-15T04:04:46.698Z,101137.69
2019-01-15T04:10:31.452Z,101138.19
2019-01-15T04:13:21.887Z,101137.34
2019-01-15T04:16:10.886Z,101131.61
2019-01-15T04:18:59.704Z,101117.41
2019-01-15T04:21:48.550Z,101124.18
2019-01-15T04:24:37.396Z,101115.97
2019-01-15T04:27:26.257Z,101115.94
2019-01-15T04:30:36.047Z,101109.09
2019-01-15T04:33:17.867Z,101117.24
2019-01-15T04:36:06.784Z,101050.03
2019-01-15T04:38:55.616Z,101111.72
2019-01-15T04:41:44.530Z,101107.86
2019-01-15T04:44:33.420Z,101104.83
2019-01-15T04:47:22.228Z,101099.59
2019-01-15T04:50:11.258Z,101100.95
2019-01-15T04:55:55.683Z,101009.77
2019-01-15T04:58:46.347Z,101095.14
2019-01-15T05:01:35.142Z,101080.08
2019-01-15T05:04:24.103Z,101095.09
2019-01-15T05:07:13.000Z,101086.02
2019-01-15T05:10:01.869Z,101092.84
2019-01-15T05:12:50.744Z,101090.91
2019-01-15T05:15:39.591Z,101090.07
2019-01-15T05:18:28.445Z,101085.13
2019-01-15T05:21:17.267Z,101084.56
2019-01-15T05:24:06.294Z,101061.96
2019-01-15T05:26:55.114Z,101082.30
2019-01-15T05:29:44.018Z,101079.27
2019-01-15T05:32:32.895Z,101079.52
2019-01-15T05:35:14.346Z,101075.11
2019-01-15T05:38:03.160Z,101076.74
2019-01-15T05:40:52.077Z,101075.67
2019-01-15T05:43:40.918Z,101071.84
2019-01-15T05:46:29.768Z,101073.20
2019-01-15T05:49:18.580Z,101071.85
2019-01-15T05:52:07.431Z,101067.75
2019-01-15T05:54:56.335Z,101072.42
2019-01-15T05:57:45.207Z,101069.73
2019-01-15T06:00:34.124Z,101072.20
2019-01-15T06:03:23.041Z,101070.84
2019-01-15T06:06:11.940Z,101067.53
2019-01-15T06:09:00.761Z,101065.07
2019-01-15T06:11:49.251Z,101062.59
2019-01-15T06:14:37.747Z,101064.22
2019-01-15T06:17:26.695Z,101052.98
2019-01-15T06:20:36.438Z,101045.57
2019-01-15T06:23:25.302Z,101036.31
2019-01-15T06:26:07.361Z,101051.55
2019-01-15T06:28:56.420Z,101046.07
2019-01-15T06:31:45.269Z,101042.49
2019-01-15T06:34:34.147Z,101044.91
2019-01-15T06:37:22.995Z,101044.33
2019-01-15T06:40:31.141Z,101031.98
2019-01-15T06:43:19.990Z,101029.75
2019-01-15T06:46:08.873Z,101027.81
2019-01-15T06:48:57.783Z,101025.86
2019-01-15T06:51:27.369Z,101017.90
2019-01-15T06:54:16.268Z,101016.48
2019-01-15T06:57:05.283Z,101015.90
2019-01-15T06:59:55.055Z,101007.95
2019-01-15T07:02:44.730Z,101013.42
2019-01-15T07:05:33.651Z,100960.28
2019-01-15T07:08:03.361Z,101018.31
2019-01-15T07:10:52.269Z,101025.12
2019-01-15T07:13:41.077Z,101031.40
2019-01-15T07:19:10.107Z,101034.64
2019-01-15T07:21:52.293Z,101024.75
2019-01-15T07:24:53.108Z,101028.02
2019-01-15T07:27:12.411Z,101026.63
2019-01-15T07:30:01.238Z,101030.14
2019-01-15T07:32:30.796Z,101031.75
2019-01-15T07:35:19.718Z,101024.06
2019-01-15T07:38:08.590Z,101032.23
2019-01-15T07:40:57.427Z,101040.42
2019-01-15T07:43:46.232Z,101052.68
2019-01-15T07:46:35.074Z,101052.66
2019-01-15T07:49:23.874Z,101048.25
2019-01-15T07:51:53.365Z,101047.14
2019-01-15T07:57:38.168Z,101049.28
2019-01-15T08:00:27.344Z,101045.19
2019-01-15T08:03:16.252Z,101051.44
2019-01-15T08:06:05.544Z,101045.69
2019-01-15T08:08:54.360Z,101051.94
2019-01-15T08:11:43.385Z,101039.86
2019-01-15T08:14:32.277Z,101040.91
2019-01-15T08:17:21.105Z,101035.42
2019-01-15T08:20:30.875Z,101029.35
2019-01-15T08:23:19.346Z,101033.14
2019-01-15T08:26:07.896Z,101033.92
2019-01-15T08:28:37.525Z,101025.69
2019-01-15T08:31:26.954Z,101030.25
2019-01-15T08:34:15.795Z,101025.55
2019-01-15T08:37:04.745Z,101030.98
2019-01-15T08:39:53.552Z,101029.80
2019-01-15T08:42:42.494Z,101037.93
2019-01-15T08:45:31.391Z,101043.07
2019-01-15T08:48:19.900Z,101040.25
2019-01-15T08:56:40.654Z,101026.30
2019-01-15T08:59:29.496Z,101029.52
2019-01-15T09:02:17.995Z,100988.03
2019-01-15T09:05:07.238Z,101035.38
2019-01-15T09:07:56.130Z,101031.75
2019-01-15T09:10:37.563Z,101024.55
2019-01-15T09:13:07.249Z,101021.97
2019-01-15T09:15:56.076Z,101025.45
2019-01-15T09:18:25.652Z,101019.87
2019-01-15T09:21:14.553Z,101031.58
2019-01-15T09:24:03.383Z,101039.73
2019-01-15T09:26:52.299Z,101044.81
2019-01-15T09:29:41.300Z,101043.31
2019-01-15T09:32:30.208Z,100975.59
2019-01-15T09:35:12.297Z,101035.93
2019-01-15T09:40:56.602Z,101041.25
2019-01-15T09:43:46.141Z,101031.03
2019-01-15T09:46:35.069Z,101027.94
2019-01-15T09:49:23.879Z,101030.86
2019-01-15T09:52:20.212Z,101033.00
2019-01-15T09:55:03.613Z,101031.84
2019-01-15T09:57:33.146Z,101035.85
2019-01-15T10:00:22.103Z,101039.35
2019-01-15T10:03:10.972Z,101030.75
2019-01-15T10:05:59.873Z,101029.59
2019-01-15T10:08:48.745Z,101025.91
2019-01-15T10:11:39.168Z,101027.80
2019-01-15T10:14:21.370Z,101031.30
2019-01-15T10:17:10.302Z,101017.27
2019-01-15T10:19:59.114Z,101018.90
2019-01-15T10:22:48.672Z,101022.66
2019-01-15T10:28:15.350Z,101014.88
2019-01-15T10:31:25.453Z,101003.52
2019-01-15T10:34:35.322Z,101008.39
2019-01-15T10:37:24.162Z,100994.84
2019-01-15T10:40:12.996Z,100993.05
2019-01-15T10:43:01.874Z,100995.47
2019-01-15T10:45:50.731Z,100989.94
2019-01-15T10:48:39.549Z,100990.69
2019-01-15T10:51:28.385Z,100988.69
2019-01-15T10:54:17.206Z,100975.45
2019-01-15T10:57:06.181Z,100979.20
2019-01-15T10:59:55.012Z,100977.45
2019-01-15T11:02:43.876Z,100973.20
2019-01-15T11:05:32.738Z,100968.16
2019-01-15T11:08:02.307Z,100959.83
2019-01-15T11:10:51.226Z,100967.20
2019-01-15T11:13:40.136Z,100961.10
2019-01-15T11:16:28.933Z,100960.48
2019-01-15T11:19:17.785Z,100957.10
2019-01-15T11:22:06.727Z,100953.09
2019-01-15T11:24:55.606Z,100957.08
2019-01-15T11:27:44.561Z,100957.74
2019-01-15T11:30:40.555Z,100958.19
2019-01-15T11:33:10.077Z,100956.76
2019-01-15T11:35:58.949Z,100944.39
2019-01-15T11:38:40.597Z,100952.88
2019-01-15T11:41:29.480Z,100948.42
2019-01-15T11:43:58.973Z,100945.13
2019-01-15T11:46:47.889Z,100944.80
2019-01-15T11:49:36.739Z,100941.20
2019-01-15T11:52:25.588Z,100940.06
2019-01-15T11:55:15.106Z,100883.77
2019-01-15T11:58:03.926Z,100938.39
2019-01-15T12:04:08.219Z,100939.82
2019-01-15T12:07:16.103Z,100932.66
2019-01-15T12:17:08.743Z,100932.95
2019-01-15T12:20:00.598Z,100932.89
2019-01-15T12:25:34.134Z,100921.31
2019-01-15T12:29:08.924Z,100923.52
2019-01-15T12:31:58.842Z,100924.30
2019-01-15T12:38:06.217Z,100904.56
2019-01-15T12:41:14.097Z,100911.55
2019-01-15T12:44:21.942Z,100901.03
2019-01-15T12:47:29.963Z,100905.41
2019-01-15T12:50:37.892Z,100902.02
2019-01-15T12:53:45.833Z,100893.77
2019-01-15T12:56:29.312Z,100897.34
2019-01-15T12:59:37.196Z,100895.14
2019-01-15T13:08:17.279Z,100882.91
2019-01-15T13:11:05.987Z,100882.66
2019-01-15T13:14:13.941Z,100817.89
2019-01-15T13:17:21.829Z,100877.80
2019-01-15T13:20:50.604Z,100874.80
2019-01-15T13:30:04.092Z,100874.64
2019-01-15T13:36:07.791Z,100879.92
2019-01-15T13:42:11.760Z,100865.19
2019-01-15T13:45:19.657Z,100867.69
2019-01-15T13:48:27.798Z,100868.23
2019-01-15T13:54:45.068Z,100806.80
2019-01-15T13:57:53.003Z,100863.63
2019-01-15T14:00:41.604Z,100854.33
2019-01-15T14:03:49.468Z,100857.08
2019-01-15T14:06:38.021Z,100859.83
2019-01-15T14:09:45.995Z,100860.95
2019-01-15T14:12:53.843Z,100855.46
2019-01-15T14:15:55.036Z,100848.34
2019-01-15T14:18:43.622Z,100843.39
2019-01-15T14:21:32.171Z,100845.34
2019-01-15T14:24:40.045Z,100835.43
2019-01-15T14:36:39.032Z,100802.92
2019-01-15T14:39:39.770Z,100846.14
2019-01-15T14:42:47.657Z,100838.86
2019-01-15T14:45:56.621Z,100850.27
2019-01-15T14:48:45.868Z,100847.52
2019-01-15T14:51:53.748Z,100847.59
2019-01-15T14:55:01.612Z,100847.35
2019-01-15T14:57:50.178Z,100842.49
2019-01-15T15:00:58.130Z,100834.88
2019-01-15T15:06:42.630Z,100842.14
2019-01-15T15:09:31.250Z,100842.14
2019-01-15T15:12:39.127Z,100836.39
2019-01-15T15:21:52.329Z,100844.64
2019-01-15T15:25:00.279Z,100792.74
2019-01-15T15:28:08.215Z,100846.02
2019-01-15T15:30:56.822Z,100848.52
2019-01-15T15:34:04.719Z,100846.02
2019-01-15T15:37:12.915Z,100845.77
2019-01-15T15:40:14.236Z,100835.66
2019-01-15T15:43:22.193Z,100842.78
2019-01-15T15:46:30.131Z,100841.41
2019-01-15T15:49:38.033Z,100836.78
2019-01-15T15:52:45.989Z,100837.91
2019-01-15T15:55:53.935Z,100837.42
2019-01-15T15:59:01.856Z,100835.77
2019-01-15T16:05:19.215Z,100837.14
2019-01-15T16:08:27.166Z,100829.23
2019-01-15T16:17:07.826Z,100829.53
2019-01-15T16:23:05.829Z,100771.92
2019-01-15T16:26:13.771Z,100820.48
2019-01-15T16:29:02.328Z,100815.30
2019-01-15T16:31:50.856Z,100818.62
2019-01-15T16:34:39.416Z,100810.13
2019-01-15T16:40:34.505Z,100809.06
2019-01-15T16:43:42.473Z,100821.17
2019-01-15T16:46:50.391Z,100793.98
2019-01-15T16:49:58.485Z,100804.69
2019-01-15T16:53:06.494Z,100783.13
2019-01-15T16:55:55.137Z,100801.94
2019-01-15T16:59:03.029Z,100809.06
2019-01-15T17:02:10.980Z,100807.44
2019-01-15T17:05:18.941Z,100818.42
2019-01-15T17:08:26.885Z,100811.31
2019-01-15T17:11:34.884Z,100808.56
2019-01-15T17:14:42.794Z,100813.81
2019-01-15T17:17:31.380Z,100808.90
2019-01-15T17:23:38.530Z,100804.20
2019-01-15T17:29:23.090Z,100799.20
2019-01-15T17:32:30.961Z,100810.44
2019-01-15T17:35:38.825Z,100807.69
2019-01-15T17:38:39.139Z,100795.95
2019-01-15T17:44:23.640Z,100795.56
2019-01-15T17:47:31.656Z,100789.52
2019-01-15T17:50:39.666Z,100739.24
2019-01-15T17:56:56.987Z,100804.30
2019-01-15T17:59:45.527Z,100807.88
2019-01-15T18:02:53.394Z,100807.30
2019-01-15T18:06:01.326Z,100809.80
2019-01-15T18:09:09.210Z,100808.42
2019-01-15T18:12:17.109Z,100807.30
2019-01-15T18:14:46.463Z,100801.00
2019-01-15T18:17:54.333Z,100804.30
2019-01-15T18:21:02.297Z,100800.17
2019-01-15T18:27:19.571Z,100761.59
2019-01-15T18:30:48.393Z,100805.38
2019-01-15T18:33:56.358Z,100805.63
2019-01-15T18:37:04.251Z,100800.92
2019-01-15T18:39:48.052Z,100800.03
2019-01-15T18:42:55.977Z,100797.28
2019-01-15T18:46:03.877Z,100799.73
2019-01-15T18:49:11.737Z,100761.39
2019-01-15T18:52:19.692Z,100798.30
2019-01-15T18:58:37.125Z,100790.30
2019-01-15T19:01:25.803Z,100769.70
2019-01-15T19:04:33.751Z,100786.42
2019-01-15T19:07:22.373Z,100786.67
2019-01-15T19:10:30.475Z,100779.80
2019-01-15T19:13:19.072Z,100781.17
2019-01-15T19:16:27.085Z,100725.19
2019-01-15T19:19:12.060Z,100778.42
2019-01-15T19:25:15.890Z,100769.94
2019-01-15T19:28:23.817Z,100781.17
2019-01-15T19:31:31.689Z,100775.68
2019-01-15T19:34:39.630Z,100777.30
2019-01-15T19:37:47.490Z,100715.52
2019-01-15T19:46:25.390Z,100773.58
2019-01-15T19:49:33.327Z,100776.33
2019-01-15T19:52:41.184Z,100772.78
2019-01-15T19:55:49.041Z,100773.33
2019-01-15T20:01:52.721Z,100730.39
2019-01-15T20:04:41.340Z,100778.83
2019-01-15T20:07:49.283Z,100774.46
2019-01-15T20:16:34.228Z,100762.42
2019-01-15T20:19:16.399Z,100763.06
2019-01-15T20:22:05.092Z,100701.48
2019-01-15T20:25:12.944Z,100760.07
2019-01-15T20:28:01.625Z,100754.69
2019-01-15T20:31:09.572Z,100764.50
2019-01-15T20:34:17.452Z,100756.00
2019-01-15T20:37:25.395Z,100762.08
2019-01-15T20:40:33.452Z,100760.70
2019-01-15T20:43:41.407Z,100758.27
2019-01-15T20:46:49.364Z,100754.14
2019-01-15T20:49:57.212Z,100759.70
2019-01-15T20:53:05.174Z,100753.70
2019-01-15T20:55:53.879Z,100763.32
2019-01-15T20:59:01.774Z,100765.03
2019-01-15T21:02:09.727Z,100768.66
2019-01-15T21:05:17.594Z,100767.34
2019-01-15T21:08:25.571Z,100775.34
2019-01-15T21:11:33.467Z,100779.22
2019-01-15T21:14:41.434Z,100728.50
2019-01-15T21:20:45.237Z,100778.48
2019-01-15T21:23:33.815Z,100780.19
2019-01-15T21:26:41.755Z,100768.61
2019-01-15T21:29:49.644Z,100779.36
2019-01-15T21:32:38.240Z,100772.63
2019-01-15T21:35:46.125Z,100776.36
2019-01-15T21:38:53.967Z,100786.86
2019-01-15T21:41:37.195Z,100777.25
2019-01-15T21:47:54.521Z,100779.25
2019-01-15T21:50:43.352Z,100776.02
2019-01-15T21:53:31.967Z,100769.97
2019-01-15T21:59:49.436Z,100764.83
2019-01-15T22:06:06.767Z,100763.55
2019-01-15T22:09:14.661Z,100759.97
2019-01-15T22:12:22.480Z,100707.39
2019-01-15T22:15:30.446Z,100760.80
2019-01-15T22:18:38.325Z,100759.91
2019-01-15T22:21:46.231Z,100753.59
2019-01-15T22:24:54.075Z,100751.98
2019-01-15T22:30:57.765Z,100747.86
2019-01-15T22:34:05.600Z,100741.56
2019-01-15T22:36:54.291Z,100738.82
2019-01-15T22:40:02.154Z,100736.95
2019-01-15T22:42:50.719Z,100728.22
2019-01-15T22:48:38.638Z,100660.66
2019-01-15T22:51:46.503Z,100729.41
2019-01-15T22:57:50.176Z,100728.85
2019-01-15T23:01:18.958Z,100716.74
2019-01-15T23:04:47.749Z,100706.14
2019-01-15T23:07:55.700Z,100712.87
2019-01-15T23:11:03.532Z,100706.00
2019-01-15T23:14:11.480Z,100709.54
2019-01-15T23:17:19.362Z,100698.25
2019-01-15T23:20:48.142Z,100699.62
2019-01-15T23:23:56.079Z,100691.14
2019-01-15T23:27:03.904Z,100690.26
2019-01-15T23:30:11.830Z,100700.12
2019-01-15T23:33:19.662Z,100687.52
2019-01-15T23:39:44.583Z,100694.87
2019-01-15T23:42:27.619Z,100690.75
2019-01-15T23:45:28.696Z,100695.66
2019-01-15T23:48:36.605Z,100622.34
2019-01-15T23:51:44.427Z,100679.52
2019-01-15T23:54:32.970Z,100680.20
2019-01-15T23:57:40.881Z,100682.36
